Pollockville, Canada
Current Conditions -  °F | °C
As of 3:00 AM on Sunday 21 Dec 2014 (Local Time) from CYXH Reporting Station
Broken Clouds Broken Clouds  
Wind Chill: 23°   Ceiling: 21000
Heat Index: 28°   Visibility: 9mi
Dew Point: 23°   Wind: 5mph
Humidity: 80%   Direction: 210°SSW
Pressure: 29.31"   Gusts: NA
Location:  51.1°N, 111.59°W
Report Text: CYXH 211000Z AUTO 21004KT 9SM FEW180 BKN210 BKN230 M02/M05 A2931 RMK SLP949
Loading
Personal Weather Stations






























Interactive Weather Map New forecast layout! Learn more

10-Day Weather Forecast

Advertisements
Track Severe Weather on mobile